createdAt,value
2019-03-23T00:01:03.202Z,74.64
2019-03-23T00:03:35.745Z,73.23
2019-03-23T00:06:09.949Z,72.91
2019-03-23T00:08:43.887Z,73.17
2019-03-23T00:11:16.576Z,73.14
2019-03-23T00:13:49.122Z,73.10
2019-03-23T00:16:21.863Z,73.22
2019-03-23T00:18:55.464Z,73.41
2019-03-23T00:21:28.196Z,73.91
2019-03-23T00:24:01.536Z,74.72
2019-03-23T00:26:35.405Z,76.40
2019-03-23T00:29:08.110Z,76.94
2019-03-23T00:31:40.832Z,78.00
2019-03-23T00:34:13.502Z,78.64
2019-03-23T00:36:46.122Z,79.37
2019-03-23T00:39:21.390Z,79.55
2019-03-23T00:41:53.903Z,79.57
2019-03-23T00:44:43.217Z,78.82
2019-03-23T00:47:15.891Z,78.15
2019-03-23T00:49:48.739Z,77.75
2019-03-23T00:52:30.691Z,77.64
2019-03-23T00:55:03.305Z,77.54
2019-03-23T00:57:35.914Z,77.88
2019-03-23T01:00:09.604Z,77.33
2019-03-23T01:02:42.425Z,76.96
2019-03-23T01:05:15.040Z,77.15
2019-03-23T01:07:47.768Z,76.92
2019-03-23T01:10:27.010Z,76.83
2019-03-23T01:12:59.754Z,77.82
2019-03-23T01:15:42.917Z,79.21
2019-03-23T01:18:15.435Z,80.16
2019-03-23T01:20:49.942Z,81.07
2019-03-23T01:23:22.357Z,82.03
2019-03-23T01:25:58.326Z,82.24
2019-03-23T01:28:30.848Z,82.70
2019-03-23T01:31:06.539Z,82.97
2019-03-23T01:33:39.212Z,83.45
2019-03-23T01:36:21.058Z,84.10
2019-03-23T01:38:53.633Z,84.10
2019-03-23T01:41:33.642Z,84.58
2019-03-23T01:44:06.984Z,84.82
2019-03-23T01:46:42.506Z,84.78
2019-03-23T01:49:15.076Z,84.32
2019-03-23T01:51:47.597Z,84.87
2019-03-23T01:54:20.032Z,85.18
2019-03-23T01:56:52.629Z,85.58
2019-03-23T01:59:25.272Z,85.74
2019-03-23T02:01:57.838Z,85.27
2019-03-23T02:04:30.467Z,84.42
2019-03-23T02:07:13.172Z,83.34
2019-03-23T02:09:37.433Z,82.96
2019-03-23T02:12:10.157Z,82.48
2019-03-23T02:14:42.569Z,82.45
2019-03-23T02:17:15.099Z,82.42
2019-03-23T02:19:47.695Z,82.71
2019-03-23T02:22:20.348Z,82.71
2019-03-23T02:24:53.031Z,82.39
2019-03-23T02:27:25.647Z,82.92
2019-03-23T02:29:58.178Z,83.78
2019-03-23T02:32:30.754Z,84.17
2019-03-23T02:35:03.321Z,84.36
2019-03-23T02:37:35.976Z,84.65
2019-03-23T02:40:09.296Z,84.52
2019-03-23T02:42:41.925Z,84.55
2019-03-23T02:45:14.902Z,85.57
2019-03-23T02:47:47.283Z,86.16
2019-03-23T02:50:19.986Z,86.89
2019-03-23T02:52:55.716Z,86.98
2019-03-23T02:55:28.352Z,87.12
2019-03-23T02:58:04.151Z,87.36
2019-03-23T03:00:36.836Z,87.66
2019-03-23T03:03:09.603Z,87.82
2019-03-23T03:05:42.332Z,87.90
2019-03-23T03:08:23.985Z,87.83
2019-03-23T03:10:56.756Z,87.85
2019-03-23T03:13:36.843Z,87.76
2019-03-23T03:16:09.518Z,87.81
2019-03-23T03:18:42.094Z,87.77
2019-03-23T03:21:14.555Z,87.40
2019-03-23T03:23:56.631Z,87.12
2019-03-23T03:26:29.002Z,87.07
2019-03-23T03:29:01.661Z,87.59
2019-03-23T03:31:34.220Z,87.78
2019-03-23T03:34:10.782Z,87.59
2019-03-23T03:36:43.953Z,87.11
2019-03-23T03:39:34.454Z,86.12
2019-03-23T03:42:07.862Z,85.29
2019-03-23T03:44:40.187Z,85.49
2019-03-23T03:47:12.791Z,85.72
2019-03-23T03:49:45.508Z,86.62
2019-03-23T03:52:17.994Z,87.32
2019-03-23T03:54:53.557Z,88.22
2019-03-23T03:57:25.916Z,88.77
2019-03-23T04:00:07.600Z,89.40
2019-03-23T04:02:40.106Z,89.54
2019-03-23T04:05:15.772Z,89.39
2019-03-23T04:07:48.371Z,89.38
2019-03-23T04:10:30.606Z,89.51
2019-03-23T04:13:03.047Z,89.19
2019-03-23T04:15:35.931Z,88.75
2019-03-23T04:18:08.232Z,88.69
2019-03-23T04:20:46.254Z,88.18
2019-03-23T04:23:18.941Z,88.23
2019-03-23T04:25:55.551Z,88.08
2019-03-23T04:28:29.075Z,87.99
2019-03-23T04:31:05.747Z,88.36
2019-03-23T04:33:38.310Z,88.59
2019-03-23T04:36:14.747Z,88.54
2019-03-23T04:38:47.283Z,88.62
2019-03-23T04:41:27.527Z,88.19
2019-03-23T04:44:00.052Z,88.06
2019-03-23T04:46:41.345Z,88.18
2019-03-23T04:49:13.868Z,88.37
2019-03-23T04:51:46.373Z,88.97
2019-03-23T04:54:18.899Z,89.40
2019-03-23T04:56:57.540Z,89.38
2019-03-23T04:59:30.187Z,89.70
2019-03-23T05:02:15.040Z,90.27
2019-03-23T05:04:47.507Z,90.50
2019-03-23T05:07:20.372Z,90.92
2019-03-23T05:09:52.972Z,91.42
2019-03-23T05:12:28.980Z,91.76
2019-03-23T05:15:01.504Z,92.03
2019-03-23T05:17:34.191Z,92.75
2019-03-23T05:20:07.452Z,92.79
2019-03-23T05:22:40.050Z,92.60
2019-03-23T05:25:24.948Z,92.43
2019-03-23T05:27:57.764Z,92.65
2019-03-23T05:30:30.323Z,92.38
2019-03-23T05:33:03.008Z,92.25
2019-03-23T05:35:36.641Z,92.06
2019-03-23T05:38:09.018Z,91.80
2019-03-23T05:40:41.504Z,90.97
2019-03-23T05:43:13.893Z,91.00
2019-03-23T05:45:46.378Z,89.03
2019-03-23T05:48:18.829Z,82.29
2019-03-23T05:50:51.470Z,78.41
2019-03-23T05:53:24.060Z,71.50
2019-03-23T05:55:56.567Z,67.70
2019-03-23T05:58:29.105Z,64.12
2019-03-23T06:01:01.785Z,62.25
2019-03-23T06:03:34.227Z,59.78
2019-03-23T06:06:06.959Z,56.70
2019-03-23T06:08:39.503Z,55.00
2019-03-23T06:11:11.929Z,53.04
2019-03-23T06:13:44.474Z,50.19
2019-03-23T06:16:17.918Z,49.97
2019-03-23T06:18:50.625Z,48.30
2019-03-23T06:21:23.238Z,49.15
2019-03-23T06:23:55.773Z,48.67
2019-03-23T06:26:28.448Z,46.94
2019-03-23T06:29:01.029Z,46.06
2019-03-23T06:31:33.595Z,45.46
2019-03-23T06:34:06.062Z,44.81
2019-03-23T06:36:39.115Z,45.30
2019-03-23T06:39:11.640Z,45.40
2019-03-23T06:41:44.139Z,44.88
2019-03-23T06:44:18.390Z,42.96
2019-03-23T06:46:51.107Z,40.79
2019-03-23T06:49:23.701Z,39.28
2019-03-23T06:51:56.229Z,38.08
2019-03-23T06:54:28.930Z,37.14
2019-03-23T06:57:01.479Z,36.23
2019-03-23T06:59:34.240Z,38.04
2019-03-23T07:02:06.678Z,41.59
2019-03-23T07:04:39.207Z,44.52
2019-03-23T07:07:11.655Z,44.56
2019-03-23T07:09:47.273Z,41.21
2019-03-23T07:12:19.885Z,38.66
2019-03-23T07:14:56.601Z,36.65
2019-03-23T07:17:30.116Z,33.94
2019-03-23T07:20:08.355Z,31.01
2019-03-23T07:22:41.404Z,31.34
2019-03-23T07:25:22.973Z,31.04
2019-03-23T07:27:55.824Z,31.92
2019-03-23T07:30:31.296Z,31.84
2019-03-23T07:33:03.861Z,30.25
2019-03-23T07:35:37.845Z,29.45
2019-03-23T07:38:10.929Z,29.19
2019-03-23T07:40:52.530Z,29.21
2019-03-23T07:43:25.245Z,28.13
2019-03-23T07:46:02.964Z,27.61
2019-03-23T07:48:35.803Z,28.04
2019-03-23T07:51:14.464Z,27.12
2019-03-23T07:53:47.044Z,25.54
2019-03-23T07:56:19.717Z,25.10
2019-03-23T07:58:52.959Z,24.07
2019-03-23T08:01:28.618Z,23.40
2019-03-23T08:04:01.680Z,22.79
2019-03-23T08:06:44.079Z,22.65
2019-03-23T08:09:20.670Z,22.31
2019-03-23T08:11:52.856Z,22.23
2019-03-23T08:14:25.779Z,21.73
2019-03-23T08:17:04.497Z,21.01
2019-03-23T08:19:38.394Z,20.93
2019-03-23T08:22:11.285Z,20.71
2019-03-23T08:24:43.850Z,19.93
2019-03-23T08:27:19.813Z,19.27
2019-03-23T08:29:52.293Z,18.19
2019-03-23T08:32:31.808Z,17.58
2019-03-23T08:35:05.414Z,16.92
2019-03-23T08:37:41.481Z,16.71
2019-03-23T08:40:14.364Z,15.34
2019-03-23T08:42:56.665Z,15.07
2019-03-23T08:45:30.003Z,16.18
2019-03-23T08:48:06.089Z,15.16
2019-03-23T08:50:40.398Z,14.71
2019-03-23T08:53:20.579Z,15.17
2019-03-23T08:55:53.438Z,18.37
2019-03-23T08:58:32.233Z,15.61
2019-03-23T09:01:05.353Z,16.89
2019-03-23T09:03:40.788Z,17.02
2019-03-23T09:06:13.362Z,16.84
2019-03-23T09:08:46.086Z,17.18
2019-03-23T09:11:20.615Z,15.71
2019-03-23T09:13:54.068Z,15.60
2019-03-23T09:16:26.674Z,14.38
2019-03-23T09:18:59.293Z,14.15
2019-03-23T09:21:31.703Z,13.33
2019-03-23T09:24:04.310Z,12.84
2019-03-23T09:26:36.948Z,12.25
2019-03-23T09:29:21.382Z,11.67
2019-03-23T09:31:53.866Z,14.00
2019-03-23T09:34:26.581Z,15.52
2019-03-23T09:37:00.690Z,14.25
2019-03-23T09:39:40.026Z,13.11
2019-03-23T09:42:12.633Z,13.16
2019-03-23T09:44:45.245Z,12.14
2019-03-23T09:47:17.938Z,13.13
2019-03-23T09:49:53.822Z,12.12
2019-03-23T09:52:27.057Z,11.50
2019-03-23T09:55:13.248Z,11.26
2019-03-23T09:57:46.188Z,10.42
2019-03-23T10:00:19.553Z,11.11
2019-03-23T10:02:52.247Z,11.22
2019-03-23T10:05:24.864Z,11.71
2019-03-23T10:07:57.418Z,11.16
2019-03-23T10:10:34.213Z,10.50
2019-03-23T10:13:06.700Z,10.33
2019-03-23T10:15:51.838Z,10.33
2019-03-23T10:18:24.468Z,9.63
2019-03-23T10:21:00.022Z,9.46
2019-03-23T10:23:33.042Z,9.01
2019-03-23T10:26:11.678Z,9.41
2019-03-23T10:28:44.754Z,10.15
2019-03-23T10:31:20.779Z,10.53
2019-03-23T10:33:53.754Z,10.08
2019-03-23T10:36:26.996Z,9.92
2019-03-23T10:38:59.703Z,9.92
2019-03-23T10:41:41.059Z,10.67
2019-03-23T10:44:13.708Z,10.13
2019-03-23T10:46:54.634Z,10.35
2019-03-23T10:49:27.365Z,11.30
2019-03-23T10:51:59.892Z,10.72
2019-03-23T10:54:32.546Z,12.22
2019-03-23T10:57:11.419Z,11.47
2019-03-23T10:59:44.079Z,10.09
2019-03-23T11:02:19.766Z,8.77
2019-03-23T11:04:52.715Z,9.06
2019-03-23T11:07:35.137Z,8.99
2019-03-23T11:10:08.280Z,8.51
2019-03-23T11:12:41.285Z,8.34
2019-03-23T11:15:14.278Z,7.55
2019-03-23T11:17:50.793Z,7.36
2019-03-23T11:20:24.673Z,6.83
2019-03-23T11:23:05.000Z,7.35
2019-03-23T11:25:39.084Z,6.98
2019-03-23T11:28:15.201Z,8.18
2019-03-23T11:30:48.435Z,8.79
2019-03-23T11:33:28.119Z,8.46
2019-03-23T11:36:00.911Z,8.08
2019-03-23T11:38:37.967Z,8.40
2019-03-23T11:41:17.993Z,9.23
2019-03-23T11:43:50.973Z,9.48
2019-03-23T11:46:23.809Z,9.08
2019-03-23T11:48:57.441Z,9.64
2019-03-23T11:51:30.003Z,9.65
2019-03-23T11:54:02.795Z,10.05
2019-03-23T11:56:35.584Z,10.42
2019-03-23T11:59:08.225Z,10.27
2019-03-23T12:01:51.303Z,10.33
2019-03-23T12:04:16.026Z,10.00
2019-03-23T12:06:48.825Z,10.14
2019-03-23T12:09:24.604Z,9.91
2019-03-23T12:11:57.633Z,9.70
2019-03-23T12:14:31.452Z,9.66
2019-03-23T12:17:04.655Z,10.32
2019-03-23T12:19:37.166Z,10.49
2019-03-23T12:22:10.055Z,9.66
2019-03-23T12:24:42.773Z,9.88
2019-03-23T12:27:15.979Z,12.23
2019-03-23T12:29:48.963Z,11.24
2019-03-23T12:32:21.747Z,10.86
2019-03-23T12:34:54.450Z,12.07
2019-03-23T12:37:27.164Z,11.44
2019-03-23T12:39:59.902Z,10.57
2019-03-23T12:42:33.541Z,10.10
2019-03-23T12:45:06.728Z,10.09
2019-03-23T12:47:39.440Z,10.03
2019-03-23T12:50:13.166Z,11.13
2019-03-23T12:52:45.870Z,12.26
2019-03-23T12:55:19.255Z,11.73
2019-03-23T12:57:52.009Z,11.76
2019-03-23T13:00:24.998Z,12.37
2019-03-23T13:02:57.464Z,11.79
2019-03-23T13:05:30.095Z,11.50
2019-03-23T13:08:03.097Z,11.12
2019-03-23T13:10:36.332Z,10.21
2019-03-23T13:13:08.934Z,9.19
2019-03-23T13:15:41.638Z,8.38
2019-03-23T13:18:14.602Z,8.07
2019-03-23T13:20:47.219Z,7.83
2019-03-23T13:23:20.461Z,7.55
2019-03-23T13:25:53.436Z,7.62
2019-03-23T13:28:26.485Z,7.09
2019-03-23T13:30:59.244Z,7.71
2019-03-23T13:33:31.626Z,7.44
2019-03-23T13:36:04.545Z,7.28
2019-03-23T13:38:39.880Z,7.40
2019-03-23T13:41:13.447Z,7.72
2019-03-23T13:43:46.123Z,7.34
2019-03-23T13:46:18.683Z,7.69
2019-03-23T13:48:51.088Z,8.05
2019-03-23T13:51:24.639Z,7.77
2019-03-23T13:53:57.299Z,8.15
2019-03-23T13:56:30.184Z,7.74
2019-03-23T13:59:02.777Z,8.36
2019-03-23T14:01:36.655Z,8.30
2019-03-23T14:04:10.169Z,8.79
2019-03-23T14:06:42.889Z,8.66
2019-03-23T14:09:16.204Z,9.41
2019-03-23T14:11:54.951Z,9.22
2019-03-23T14:14:24.044Z,8.99
2019-03-23T14:16:57.758Z,9.29
2019-03-23T14:19:30.926Z,9.11
2019-03-23T14:22:03.528Z,9.04
2019-03-23T14:24:36.082Z,9.67
2019-03-23T14:27:09.186Z,10.04
2019-03-23T14:29:41.823Z,10.04
2019-03-23T14:32:15.097Z,9.91
2019-03-23T14:34:47.670Z,9.82
2019-03-23T14:37:20.365Z,9.93
2019-03-23T14:39:53.100Z,10.08
2019-03-23T14:42:26.459Z,10.45
2019-03-23T14:45:00.038Z,10.54
2019-03-23T14:47:34.401Z,11.14
2019-03-23T14:50:07.892Z,11.30
2019-03-23T14:52:40.700Z,11.13
2019-03-23T14:55:13.274Z,10.79
2019-03-23T14:57:46.703Z,10.72
2019-03-23T15:00:32.087Z,11.11
2019-03-23T15:03:05.539Z,11.71
2019-03-23T15:05:38.868Z,11.18
2019-03-23T15:08:13.659Z,11.73
2019-03-23T15:10:46.541Z,11.51
2019-03-23T15:13:19.252Z,11.66
2019-03-23T15:15:52.280Z,11.87
2019-03-23T15:18:25.238Z,12.14
2019-03-23T15:20:59.003Z,11.71
2019-03-23T15:23:39.284Z,11.65
2019-03-23T15:26:12.130Z,12.93
2019-03-23T15:28:47.600Z,12.84
2019-03-23T15:31:21.326Z,11.46
2019-03-23T15:34:00.107Z,11.58
2019-03-23T15:36:32.874Z,11.78
2019-03-23T15:39:07.472Z,12.13
2019-03-23T15:41:40.735Z,12.74
2019-03-23T15:44:13.844Z,12.57
2019-03-23T15:46:46.656Z,12.68
2019-03-23T15:49:19.718Z,13.33
2019-03-23T15:51:52.324Z,12.96
2019-03-23T15:54:26.010Z,13.51
2019-03-23T15:56:59.693Z,12.97
2019-03-23T15:59:32.615Z,12.57
2019-03-23T16:02:05.402Z,12.73
2019-03-23T16:04:38.012Z,12.78
2019-03-23T16:07:10.789Z,13.04
2019-03-23T16:09:44.419Z,13.17
2019-03-23T16:12:17.143Z,13.29
2019-03-23T16:14:49.808Z,13.74
2019-03-23T16:17:22.386Z,13.84
2019-03-23T16:19:54.899Z,14.08
2019-03-23T16:22:28.000Z,14.25
2019-03-23T16:25:01.289Z,14.77
2019-03-23T16:27:34.317Z,14.91
2019-03-23T16:30:08.847Z,15.53
2019-03-23T16:32:41.463Z,15.57
2019-03-23T16:35:14.529Z,15.87
2019-03-23T16:37:47.698Z,16.29
2019-03-23T16:40:20.411Z,16.75
2019-03-23T16:42:53.069Z,17.20
2019-03-23T16:45:25.553Z,17.48
2019-03-23T16:47:58.218Z,18.04
2019-03-23T16:50:31.433Z,18.54
2019-03-23T16:53:04.755Z,19.05
2019-03-23T16:55:38.606Z,19.68
2019-03-23T16:58:16.060Z,20.18
2019-03-23T17:00:46.215Z,20.80
2019-03-23T17:03:19.216Z,21.27
2019-03-23T17:05:51.937Z,21.91
2019-03-23T17:08:24.715Z,21.96
2019-03-23T17:10:57.388Z,22.45
2019-03-23T17:13:31.168Z,22.53
2019-03-23T17:16:04.570Z,22.95
2019-03-23T17:18:38.208Z,23.35
2019-03-23T17:21:11.006Z,23.59
2019-03-23T17:23:43.916Z,24.12
2019-03-23T17:26:17.453Z,24.57
2019-03-23T17:28:50.770Z,24.69
2019-03-23T17:31:23.961Z,24.83
2019-03-23T17:33:56.742Z,24.85
2019-03-23T17:36:29.516Z,25.10
2019-03-23T17:39:02.227Z,25.28
2019-03-23T17:41:35.583Z,25.73
2019-03-23T17:44:08.788Z,26.15
2019-03-23T17:46:42.207Z,26.61
2019-03-23T17:49:16.208Z,26.56
2019-03-23T17:51:48.930Z,27.07
2019-03-23T17:54:22.054Z,27.66
2019-03-23T17:56:54.935Z,27.68
2019-03-23T17:59:28.740Z,27.91
2019-03-23T18:02:02.147Z,28.17
2019-03-23T18:04:34.711Z,28.79
2019-03-23T18:07:07.466Z,29.20
2019-03-23T18:09:40.387Z,29.78
2019-03-23T18:12:13.597Z,30.67
2019-03-23T18:14:47.472Z,32.23
2019-03-23T18:17:20.292Z,33.17
2019-03-23T18:19:53.347Z,33.63
2019-03-23T18:22:26.665Z,34.21
2019-03-23T18:24:59.467Z,34.96
2019-03-23T18:27:32.630Z,35.25
2019-03-23T18:30:05.985Z,35.73
2019-03-23T18:32:40.573Z,36.00
2019-03-23T18:35:14.537Z,36.39
2019-03-23T18:37:48.962Z,36.67
2019-03-23T18:40:23.482Z,37.11
2019-03-23T18:43:01.914Z,37.46
2019-03-23T18:45:35.764Z,37.58
2019-03-23T18:48:09.612Z,38.00
2019-03-23T18:50:42.993Z,38.55
2019-03-23T18:53:15.907Z,39.23
2019-03-23T18:55:48.658Z,40.15
2019-03-23T18:58:21.575Z,40.45
2019-03-23T19:00:54.531Z,40.40
2019-03-23T19:03:27.682Z,40.46
2019-03-23T19:06:00.718Z,40.67
2019-03-23T19:08:41.045Z,40.87
2019-03-23T19:11:15.005Z,41.04
2019-03-23T19:13:52.358Z,41.79
2019-03-23T19:16:25.131Z,41.66
2019-03-23T19:19:01.764Z,42.22
2019-03-23T19:21:42.912Z,42.53
2019-03-23T19:24:17.586Z,42.81
2019-03-23T19:26:52.411Z,42.88
2019-03-23T19:29:27.776Z,44.88
2019-03-23T19:32:01.950Z,44.85
2019-03-23T19:34:36.094Z,45.32
2019-03-23T19:37:09.342Z,45.07
2019-03-23T19:39:45.638Z,44.80
2019-03-23T19:42:18.506Z,44.68
2019-03-23T19:44:54.829Z,45.17
2019-03-23T19:47:28.162Z,45.31
2019-03-23T19:50:01.210Z,45.22
2019-03-23T19:52:33.859Z,45.28
2019-03-23T19:55:09.945Z,45.95
2019-03-23T19:57:42.861Z,46.15
2019-03-23T20:00:28.621Z,46.53
2019-03-23T20:03:05.103Z,47.00
2019-03-23T20:05:37.750Z,47.74
2019-03-23T20:08:10.723Z,48.48
2019-03-23T20:10:43.737Z,48.77
2019-03-23T20:13:16.743Z,49.11
2019-03-23T20:15:52.342Z,48.80
2019-03-23T20:18:25.174Z,48.46
2019-03-23T20:21:07.864Z,48.98
2019-03-23T20:23:41.165Z,49.02
2019-03-23T20:26:18.715Z,48.74
2019-03-23T20:28:51.626Z,49.33
2019-03-23T20:31:27.663Z,51.83
2019-03-23T20:34:02.599Z,51.43
2019-03-23T20:36:39.001Z,52.17
2019-03-23T20:39:12.055Z,52.71
2019-03-23T20:41:47.643Z,51.82
2019-03-23T20:44:20.519Z,51.62
2019-03-23T20:46:53.967Z,52.09
2019-03-23T20:49:28.782Z,52.18
2019-03-23T20:52:02.155Z,52.16
2019-03-23T20:54:37.800Z,52.34
2019-03-23T20:57:11.224Z,52.70
2019-03-23T20:59:46.408Z,52.25
2019-03-23T21:02:19.719Z,51.94
2019-03-23T21:04:53.246Z,51.64
2019-03-23T21:07:27.067Z,51.65
2019-03-23T21:10:00.455Z,52.13
2019-03-23T21:12:34.477Z,53.34
2019-03-23T21:15:08.759Z,53.38
2019-03-23T21:17:51.106Z,52.96
2019-03-23T21:20:19.881Z,57.75
2019-03-23T21:22:53.295Z,57.92
2019-03-23T21:25:29.943Z,58.51
2019-03-23T21:28:04.771Z,58.92
2019-03-23T21:30:39.080Z,58.97
2019-03-23T21:33:12.739Z,58.02
2019-03-23T21:35:45.642Z,55.66
2019-03-23T21:38:19.718Z,54.13
2019-03-23T21:40:53.610Z,53.23
2019-03-23T21:43:27.360Z,52.97
2019-03-23T21:46:00.122Z,53.71
2019-03-23T21:48:33.261Z,53.70
2019-03-23T21:51:06.484Z,53.84
2019-03-23T21:53:39.624Z,53.71
2019-03-23T21:56:12.610Z,52.27
2019-03-23T21:58:45.465Z,52.82
2019-03-23T22:01:18.517Z,54.22
2019-03-23T22:03:52.869Z,55.52
2019-03-23T22:06:28.439Z,55.75
2019-03-23T22:09:01.344Z,56.19
2019-03-23T22:11:34.731Z,56.53
2019-03-23T22:14:07.876Z,55.85
2019-03-23T22:16:40.673Z,55.99
2019-03-23T22:19:13.647Z,56.33
2019-03-23T22:21:47.085Z,56.31
2019-03-23T22:24:19.781Z,56.67
2019-03-23T22:26:52.742Z,57.16
2019-03-23T22:29:25.671Z,57.44
2019-03-23T22:32:01.965Z,58.44
2019-03-23T22:34:36.042Z,58.59
2019-03-23T22:37:09.020Z,59.02
2019-03-23T22:39:41.838Z,60.49
2019-03-23T22:42:14.522Z,61.42
2019-03-23T22:44:54.446Z,62.40
2019-03-23T22:47:27.221Z,62.38
2019-03-23T22:49:59.911Z,62.30
2019-03-23T22:52:32.600Z,61.92
2019-03-23T22:55:06.894Z,61.19
2019-03-23T22:57:40.060Z,61.18
2019-03-23T23:00:17.017Z,61.34
2019-03-23T23:02:50.193Z,61.24
2019-03-23T23:05:23.151Z,60.61
2019-03-23T23:07:56.232Z,60.19
2019-03-23T23:10:29.116Z,60.04
2019-03-23T23:13:02.860Z,61.95
2019-03-23T23:15:35.445Z,64.41
2019-03-23T23:18:08.517Z,65.42
2019-03-23T23:20:40.978Z,66.33
2019-03-23T23:23:13.937Z,67.86
2019-03-23T23:25:46.487Z,69.07
2019-03-23T23:28:26.340Z,66.68
2019-03-23T23:30:58.915Z,64.02
2019-03-23T23:33:31.505Z,63.28
2019-03-23T23:36:04.113Z,65.03
2019-03-23T23:38:36.947Z,66.87
2019-03-23T23:41:09.826Z,68.89
2019-03-23T23:43:42.792Z,69.77
2019-03-23T23:46:15.668Z,70.45
2019-03-23T23:48:51.700Z,71.18
2019-03-23T23:51:24.333Z,70.37
2019-03-23T23:54:00.027Z,67.69
2019-03-23T23:56:32.771Z,65.84
2019-03-23T23:59:12.629Z,65.74
